Panhandle, Texas
Current Conditions -  °F | °C
As of 9:53 PM on Tuesday 27 Jan 2015 (Local Time) from KAMA Reporting Station
Clear Clear  
Wind Chill: 41°   Ceiling: Unl
Heat Index: 46°   Visibility: 10mi
Dew Point: 34°   Wind: 12mph
Humidity: 63%   Direction: 190°S
Pressure: 30.1"   Gusts: NA
Location:  35.35°N, 101.38°W
Report Text: KAMA 280353Z 19010KT 10SM CLR 08/01 A3010 RMK AO2 SLP170 T00780011
Loading
Personal Weather Stations






























Interactive Weather Map New forecast layout! Learn more

10-Day Weather Forecast

Advertisements
Track Severe Weather on mobile